Time;durP1;ratioP1;P1;durP2;ratioP2;P2;SDS_P1;SDS_P2;PMS_P1;PMS_P2;Temp;Humidity;BMP_temperature;BMP_pressure;BME280_temperature;BME280_humidity;BME280_pressure;Samples;Min_cycle;Max_cycle;Signal;HPM_P1;HPM_P2
2023/09/08 00:01:28;;;;;;;10.10;6.97;;;;;;;;;;5030914;28;20053;-71
2023/09/08 00:03:54;;;;;;;7.03;6.13;;;;;;;;;;5030569;28;20072;-69
2023/09/08 00:06:20;;;;;;;8.38;6.65;;;;;;;;;;5031138;28;20099;-69
2023/09/08 00:08:46;;;;;;;8.52;6.93;;;;;;;;;;5029636;28;20049;-69
2023/09/08 00:11:12;;;;;;;7.68;6.80;;;;;;;;;;5031474;28;20037;-69
2023/09/08 00:13:39;;;;;;;9.65;6.47;;;;;;;;;;5029794;28;20030;-69
2023/09/08 00:16:07;;;;;;;8.20;6.90;;;;;;;;;;5027047;28;20072;-69
2023/09/08 00:18:33;;;;;;;9.25;6.10;;;;;;;;;;5030109;28;20033;-69
2023/09/08 00:20:59;;;;;;;8.73;6.70;;;;;;;;;;5031250;28;20101;-69
2023/09/08 00:23:26;;;;;;;6.85;6.10;;;;;;;;;;5030283;28;20049;-70
2023/09/08 00:25:52;;;;;;;8.20;6.50;;;;;;;;;;5050863;28;20074;-69
2023/09/08 00:28:18;;;;;;;8.00;7.15;;;;;;;;;;5044928;28;20022;-69
2023/09/08 00:30:44;;;;;;;9.10;7.10;;;;;;;;;;5046153;28;20017;-69
2023/09/08 00:33:12;;;;;;;7.07;6.28;;;;;;;;;;5027522;28;20029;-69
2023/09/08 00:35:38;;;;;;;8.65;6.95;;;;;;;;;;5033833;28;20036;-69
2023/09/08 00:38:04;;;;;;;8.35;6.43;;;;;;;;;;5044074;28;20021;-69
2023/09/08 00:40:32;;;;;;;7.80;6.55;;;;;;;;;;5037355;28;20064;-70
2023/09/08 00:42:58;;;;;;;7.20;6.47;;;;;;;;;;5034374;28;20475;-69
2023/09/08 00:45:24;;;;;;;7.25;6.55;;;;;;;;;;5047956;28;20083;-69
2023/09/08 00:47:50;;;;;;;9.55;6.97;;;;;;;;;;5034474;28;20509;-69
2023/09/08 00:50:16;;;;;;;8.38;7.25;;;;;;;;;;5030435;28;20022;-70
2023/09/08 00:52:42;;;;;;;9.05;7.25;;;;;;;;;;5033429;28;20026;-68
2023/09/08 00:55:08;;;;;;;7.47;6.25;;;;;;;;;;5034348;28;20033;-69
2023/09/08 00:57:34;;;;;;;7.95;7.15;;;;;;;;;;5034068;28;20108;-69
2023/09/08 01:00:00;;;;;;;10.93;7.63;;;;;;;;;;5034867;28;20120;-70
2023/09/08 01:02:27;;;;;;;10.20;7.57;;;;;;;;;;5041325;28;20021;-71
2023/09/08 01:04:53;;;;;;;10.65;7.15;;;;;;;;;;5044430;28;20022;-68
2023/09/08 01:07:19;;;;;;;7.88;7.07;;;;;;;;;;5044101;28;20021;-69
2023/09/08 01:09:46;;;;;;;8.48;7.30;;;;;;;;;;5043591;28;20099;-67
2023/09/08 01:12:12;;;;;;;11.48;8.00;;;;;;;;;;5044761;28;20079;-68
2023/09/08 01:14:37;;;;;;;8.77;7.38;;;15.40;99.90;;;;;;5038113;28;20021;-68
2023/09/08 01:17:03;;;;;;;7.97;6.40;;;15.40;99.90;;;;;;5034597;28;20033;-68
2023/09/08 01:19:29;;;;;;;7.70;6.57;;;15.30;99.90;;;;;;5033111;28;20025;-71
2023/09/08 01:22:00;;;;;;;10.13;6.80;;;15.30;99.90;;;;;;5029422;28;20030;-69
2023/09/08 01:24:34;;;;;;;7.68;6.70;;;;;;;;;;5032938;28;20095;-71
2023/09/08 01:27:00;;;;;;;12.20;7.05;;;;;;;;;;5033923;28;20494;-69
2023/09/08 01:29:27;;;;;;;8.23;6.90;;;;;;;;;;5033277;28;20105;-71
2023/09/08 01:31:53;;;;;;;9.68;7.40;;;;;;;;;;5033800;28;20026;-68
2023/09/08 01:34:19;;;;;;;9.95;7.80;;;;;;;;;;5033551;28;20029;-68
2023/09/08 01:36:46;;;;;;;9.57;7.20;;;;;;;;;;5032279;28;20037;-68
2023/09/08 01:39:11;;;;;;;11.70;7.20;;;;;;;;;;5029311;28;20024;-69
2023/09/08 01:41:37;;;;;;;9.95;8.18;;;;;;;;;;5032983;28;20022;-69
2023/09/08 01:44:07;;;;;;;8.30;7.13;;;;;;;;;;5033502;28;20159;-69
2023/09/08 01:46:34;;;;;;;9.27;7.30;;;;;;;;;;5033004;28;20033;-68
2023/09/08 01:49:00;;;;;;;8.07;7.20;;;;;;;;;;5033036;28;20034;-68
2023/09/08 01:51:26;;;;;;;10.20;7.90;;;;;;;;;;5033665;28;20024;-68
2023/09/08 01:53:52;;;;;;;10.15;7.78;;;;;;;;;;5032363;28;20489;-68
2023/09/08 01:56:18;;;;;;;8.90;7.18;;;;;;;;;;5029632;28;20135;-69
2023/09/08 01:58:43;;;;;;;8.18;7.20;;;;;;;;;;5032268;28;20101;-68
2023/09/08 02:01:09;;;;;;;8.35;6.93;;;;;;;;;;5033401;28;20021;-68
2023/09/08 02:03:35;;;;;;;8.82;6.97;;;;;;;;;;5032210;28;20096;-69
2023/09/08 02:06:01;;;;;;;8.18;6.75;;;;;;;;;;5032894;28;20370;-68
2023/09/08 02:08:27;;;;;;;9.27;7.45;;;;;;;;;;5032501;28;20048;-71
2023/09/08 02:10:53;;;;;;;9.55;7.45;;;;;;;;;;5032922;28;20462;-68
2023/09/08 02:13:19;;;;;;;8.43;7.50;;;;;;;;;;5028591;28;20032;-68
2023/09/08 02:15:45;;;;;;;11.98;7.55;;;;;;;;;;5032255;28;20026;-69
2023/09/08 02:18:12;;;;;;;9.85;7.47;;;;;;;;;;5032430;28;20036;-67
2023/09/08 02:20:38;;;;;;;8.85;6.97;;;;;;;;;;5032195;28;20370;-68
2023/09/08 02:23:05;;;;;;;8.43;7.43;;;;;;;;;;5032054;28;20057;-68
2023/09/08 02:25:31;;;;;;;11.85;7.60;;;;;;;;;;5032006;28;20085;-69
2023/09/08 02:27:57;;;;;;;8.43;6.75;;;;;;;;;;5031561;28;20459;-70
2023/09/08 02:30:23;;;;;;;11.73;7.40;;;;;;;;;;5029472;28;20501;-69
2023/09/08 02:32:49;;;;;;;9.23;7.03;;;;;;;;;;5032274;28;20029;-68
2023/09/08 02:35:15;;;;;;;8.68;7.15;;;;;;;;;;5032925;28;20433;-68
2023/09/08 02:37:41;;;;;;;8.52;6.13;;;;;;;;;;5031582;28;20055;-69
2023/09/08 02:40:07;;;;;;;11.02;7.20;;;;;;;;;;5033173;28;20489;-68
2023/09/08 02:42:33;;;;;;;8.15;6.85;;;;;;;;;;5031719;28;20080;-69
2023/09/08 02:44:59;;;;;;;9.43;7.07;;;;;;;;;;5028769;28;20033;-69
2023/09/08 02:47:25;;;;;;;7.88;6.80;;;;;;;;;;5032021;28;20025;-68
2023/09/08 02:49:51;;;;;;;9.05;6.72;;;;;;;;;;5031373;28;20037;-69
2023/09/08 02:52:19;;;;;;;7.05;6.35;;;;;;;;;;5032467;28;20025;-69
2023/09/08 02:54:45;;;;;;;7.70;6.45;;;;;;;;;;5031473;28;20045;-69
2023/09/08 02:57:11;;;;;;;7.95;6.35;;;;;;;;;;5032557;28;20386;-68
2023/09/08 02:59:37;;;;;;;7.90;7.10;;;;;;;;;;5031930;28;20036;-68
2023/09/08 03:02:03;;;;;;;9.05;7.72;;;;;;;;;;5028922;28;20029;-68
2023/09/08 03:04:29;;;;;;;7.65;6.72;;;;;;;;;;5031600;28;20025;-70
2023/09/08 03:06:55;;;;;;;9.27;6.60;;;;;;;;;;5032030;28;20028;-68
2023/09/08 03:09:21;;;;;;;8.48;6.65;;;;;;;;;;5032098;28;20026;-68
2023/09/08 03:11:47;;;;;;;7.97;6.75;;;;;;;;;;5031604;28;20037;-69
2023/09/08 03:14:13;;;;;;;7.75;6.70;;;;;;;;;;5031739;28;20413;-69
2023/09/08 03:16:39;;;;;;;7.80;6.50;;;;;;;;;;5026983;28;20044;-70
2023/09/08 03:19:05;;;;;;;7.63;6.80;;;;;;;;;;5031723;28;20072;-69
2023/09/08 03:21:31;;;;;;;11.05;7.18;;;;;;;;;;5031136;28;20079;-71
2023/09/08 03:23:57;;;;;;;10.95;7.60;;;;;;;;;;5031463;28;20061;-68
2023/09/08 03:26:23;;;;;;;10.73;7.55;;;;;;;;;;5032208;28;20029;-69
2023/09/08 03:28:49;;;;;;;7.93;7.05;;;;;;;;;;5030775;28;20637;-69
2023/09/08 03:31:15;;;;;;;10.23;7.47;;;;;;;;;;5031971;28;20021;-69
2023/09/08 03:33:42;;;;;;;10.05;7.22;;;;;;;;;;5025882;28;20028;-69
2023/09/08 03:36:08;;;;;;;10.10;7.32;;;;;;;;;;5032191;28;20040;-68
2023/09/08 03:38:36;;;;;;;8.48;7.20;;;;;;;;;;5030779;28;20075;-69
2023/09/08 03:41:02;;;;;;;7.68;6.45;;;;;;;;;;5031973;28;20474;-68
2023/09/08 03:43:28;;;;;;;8.48;6.53;;;;;;;;;;5031254;28;20045;-71
2023/09/08 03:45:54;;;;;;;9.88;7.05;;;;;;;;;;5031670;28;20025;-68
2023/09/08 03:48:20;;;;;;;8.10;7.30;;;;;;;;;;5031345;28;20020;-69
2023/09/08 03:50:46;;;;;;;7.50;6.70;;;;;;;;;;5027565;28;20108;-69
2023/09/08 03:53:13;;;;;;;8.10;6.80;;;;;;;;;;5031114;28;20481;-69
2023/09/08 03:55:39;;;;;;;7.30;6.57;;;;;;;;;;5031035;28;20108;-69
2023/09/08 03:58:05;;;;;;;8.50;7.10;;;;;;;;;;5031297;28;20534;-69
2023/09/08 04:00:31;;;;;;;9.00;6.82;;;;;;;;;;5030730;28;20025;-70
2023/09/08 04:02:57;;;;;;;8.85;7.65;;;;;;;;;;5030984;28;20049;-69
2023/09/08 04:05:22;;;;;;;8.77;7.15;;;14.30;99.90;;;;;;5029822;28;20072;-69
2023/09/08 04:07:48;;;;;;;9.50;7.72;;;14.30;99.90;;;;;;5028193;28;20272;-69
2023/09/08 04:10:14;;;;;;;9.15;7.55;;;14.20;99.90;;;;;;5031552;28;20104;-68
2023/09/08 04:12:42;;;;;;;10.45;8.32;;;14.10;99.90;;;;;;5030324;28;20028;-69
2023/09/08 04:15:09;;;;;;;13.18;10.45;;;14.10;99.90;;;;;;5031638;28;20052;-68
2023/09/08 04:17:36;;;;;;;12.98;10.73;;;14.20;99.90;;;;;;5029902;28;20036;-69
2023/09/08 04:20:04;;;;;;;12.60;10.43;;;14.30;99.90;;;;;;5031543;28;20130;-68
2023/09/08 04:22:30;;;;;;;14.50;10.05;;;14.30;99.90;;;;;;5030710;28;20466;-71
2023/09/08 04:24:57;;;;;;;16.77;10.10;;;14.30;99.90;;;;;;5027325;28;20079;-68
2023/09/08 04:27:23;;;;;;;13.15;9.38;;;14.30;99.90;;;;;;5031290;28;20025;-68
2023/09/08 04:29:48;;;;;;;12.50;9.60;;;14.20;99.90;;;;;;5030324;28;20083;-69
2023/09/08 04:32:14;;;;;;;14.55;8.80;;;14.20;99.90;;;;;;5031596;28;20026;-68
2023/09/08 04:34:41;;;;;;;11.88;10.13;;;14.10;99.90;;;;;;5030086;28;20029;-69
2023/09/08 04:37:07;;;;;;;10.82;9.25;;;14.00;99.90;;;;;;5031793;28;20033;-68
2023/09/08 04:39:34;;;;;;;15.20;10.32;;;14.00;99.90;;;;;;5030034;28;20034;-69
2023/09/08 04:42:00;;;;;;;15.45;11.25;;;13.90;99.90;;;;;;5027347;28;20124;-68
2023/09/08 04:44:26;;;;;;;12.30;9.85;;;13.90;99.90;;;;;;5030854;28;20108;-68
2023/09/08 04:46:52;;;;;;;11.65;10.00;;;13.90;99.90;;;;;;5030450;28;20108;-68
2023/09/08 04:49:18;;;;;;;12.95;10.95;;;13.90;99.90;;;;;;5030431;28;20029;-68
2023/09/08 04:51:44;;;;;;;17.05;11.75;;;13.90;99.90;;;;;;5030436;28;20033;-68
2023/09/08 04:54:10;;;;;;;15.68;11.38;;;13.90;99.90;;;;;;5030653;28;20025;-68
2023/09/08 04:56:36;;;;;;;15.27;11.23;;;13.90;99.90;;;;;;5027127;28;20033;-68
2023/09/08 04:59:02;;;;;;;14.05;10.55;;;13.90;99.90;;;;;;5030564;28;20064;-67
2023/09/08 05:01:29;;;;;;;14.68;10.55;;;13.80;99.90;;;;;;5030916;28;20041;-70
2023/09/08 05:03:55;;;;;;;11.25;10.05;;;13.80;99.90;;;;;;5030518;28;20236;-68
2023/09/08 05:06:21;;;;;;;11.98;9.52;;;13.80;99.90;;;;;;5031504;28;20134;-68
2023/09/08 05:08:46;;;;;;;14.13;10.20;;;13.90;99.90;;;;;;5029757;28;20025;-68
2023/09/08 05:11:12;;;;;;;13.20;10.73;;;13.80;99.90;;;;;;5031358;28;20029;-68
2023/09/08 05:13:38;;;;;;;15.90;10.70;;;13.80;99.90;;;;;;5030535;28;20036;-69
2023/09/08 05:16:11;;;;;;;13.98;10.30;;;13.80;99.90;;;;;;5032622;28;20042;-68
2023/09/08 05:18:40;;;;;;;15.52;10.68;;;13.80;99.90;;;;;;5032797;28;20048;-73
2023/09/08 05:21:08;;;;;;;15.60;12.17;;;13.80;99.90;;;;;;5033894;28;20025;-68
2023/09/08 05:23:34;;;;;;;15.52;11.15;;;13.90;99.90;;;;;;5027187;28;20069;-68
2023/09/08 05:26:00;;;;;;;11.90;10.63;;;13.90;99.90;;;;;;5030646;28;20441;-67
2023/09/08 05:28:26;;;;;;;12.95;10.57;;;13.90;99.90;;;;;;5033469;28;20069;-68
2023/09/08 05:30:52;;;;;;;11.68;9.38;;;14.00;99.90;;;;;;5029779;28;20115;-69
2023/09/08 05:33:18;;;;;;;13.73;10.75;;;14.00;99.90;;;;;;5033555;28;20033;-68
2023/09/08 05:35:45;;;;;;;13.30;10.23;;;14.00;99.90;;;;;;5033018;28;20041;-68
2023/09/08 05:38:11;;;;;;;12.23;9.75;;;14.10;99.90;;;;;;5033175;28;20039;-69
2023/09/08 05:40:36;;;;;;;12.88;10.15;;;14.20;99.90;;;;;;5033195;28;20025;-69
2023/09/08 05:43:02;;;;;;;11.82;10.40;;;14.20;99.90;;;;;;5033310;28;20087;-68
2023/09/08 05:45:28;;;;;;;12.07;10.80;;;14.30;99.90;;;;;;5032961;28;20451;-70
2023/09/08 05:47:53;;;;;;;12.85;10.30;;;14.30;99.90;;;;;;5025093;28;20475;-70
2023/09/08 05:50:19;;;;;;;12.52;10.23;;;14.40;99.90;;;;;;5027175;28;20030;-68
2023/09/08 05:52:44;;;;;;;16.35;11.98;;;14.60;99.90;;;;;;5032483;28;20458;-68
2023/09/08 05:55:10;;;;;;;12.82;10.02;;;14.70;99.90;;;;;;5033153;28;20128;-68
2023/09/08 05:57:36;;;;;;;19.65;11.80;;;14.80;99.90;;;;;;5032588;28;20104;-68
2023/09/08 06:00:06;;;;;;;13.35;10.45;;;14.90;99.90;;;;;;5032131;28;20509;-68
2023/09/08 06:02:32;;;;;;;12.95;10.73;;;15.00;99.90;;;;;;5032186;28;20108;-71
2023/09/08 06:04:57;;;;;;;17.70;11.88;;;15.10;99.90;;;;;;5032990;28;20116;-69
2023/09/08 06:07:23;;;;;;;12.90;10.85;;;15.20;99.90;;;;;;5029607;28;20025;-69
2023/09/08 06:09:52;;;;;;;14.73;10.45;;;15.30;99.90;;;;;;5032873;28;20150;-70
2023/09/08 06:12:17;;;;;;;15.63;11.48;;;15.50;99.90;;;;;;5014489;28;20021;-71
2023/09/08 06:14:43;;;;;;;14.98;11.05;;;15.60;99.90;;;;;;5032581;28;20354;-73
2023/09/08 06:17:10;;;;;;;12.27;9.85;;;15.70;99.90;;;;;;5034150;28;20037;-73
2023/09/08 06:19:35;;;;;;;14.40;10.40;;;15.80;99.90;;;;;;5032149;28;20025;-69
2023/09/08 06:22:01;;;;;;;15.50;10.93;;;15.80;99.90;;;;;;5028868;28;20045;-69
2023/09/08 06:24:26;;;;;;;13.10;8.88;;;15.90;99.90;;;;;;5026116;28;20176;-70
2023/09/08 06:26:52;;;;;;;14.23;9.30;;;16.00;99.90;;;;;;5032439;28;20100;-68
2023/09/08 06:29:18;;;;;;;11.77;9.63;;;16.10;99.90;;;;;;5032134;28;20483;-69
2023/09/08 06:31:43;;;;;;;17.45;9.90;;;16.20;99.90;;;;;;5032139;28;20025;-69
2023/09/08 06:34:09;;;;;;;11.90;9.32;;;16.30;99.90;;;;;;5031881;28;20438;-69
2023/09/08 06:36:34;;;;;;;12.10;10.77;;;16.50;99.90;;;;;;5031747;28;20030;-68
2023/09/08 06:39:00;;;;;;;12.27;9.25;;;16.60;99.90;;;;;;5032166;28;20475;-68
2023/09/08 06:41:27;;;;;;;12.77;9.88;;;16.70;99.90;;;;;;5032413;28;20104;-70
2023/09/08 06:43:53;;;;;;;12.27;10.48;;;16.80;99.90;;;;;;5031244;28;20060;-69
2023/09/08 06:46:18;;;;;;;20.13;11.48;;;16.90;99.90;;;;;;5032413;28;20030;-69
2023/09/08 06:48:44;;;;;;;17.38;10.07;;;17.10;99.90;;;;;;5030391;28;20101;-70
2023/09/08 06:51:10;;;;;;;13.68;10.73;;;17.20;99.90;;;;;;5031196;28;20021;-68
2023/09/08 06:53:36;;;;;;;14.52;9.77;;;17.30;99.90;;;;;;5031051;28;20029;-69
2023/09/08 06:56:02;;;;;;;15.00;10.05;;;17.40;99.90;;;;;;5032090;28;20033;-68
2023/09/08 06:58:28;;;;;;;12.98;10.32;;;17.50;99.90;;;;;;5031231;28;20022;-71
2023/09/08 07:00:54;;;;;;;15.27;10.23;;;17.70;99.90;;;;;;5030235;28;20028;-68
2023/09/08 07:03:22;;;;;;;11.38;8.98;;;17.80;99.90;;;;;;5031650;28;20033;-68
2023/09/08 07:05:49;;;;;;;15.15;9.80;;;17.90;99.90;;;;;;5031302;28;20025;-68
2023/09/08 07:08:15;;;;;;;13.18;8.85;;;18.00;99.90;;;;;;5031438;28;20025;-69
2023/09/08 07:10:40;;;;;;;14.00;9.88;;;18.10;99.90;;;;;;5030948;28;20155;-68
2023/09/08 07:13:06;;;;;;;11.73;8.85;;;18.20;99.90;;;;;;5031758;28;20022;-68
2023/09/08 07:15:32;;;;;;;13.77;9.77;;;18.30;99.90;;;;;;5031144;28;20038;-69
2023/09/08 07:17:57;;;;;;;12.40;8.90;;;18.40;99.90;;;;;;5030285;28;20025;-70
2023/09/08 07:20:23;;;;;;;12.88;9.40;;;18.50;99.90;;;;;;5029888;28;20057;-69
2023/09/08 07:22:48;;;;;;;12.90;9.55;;;18.60;99.90;;;;;;5029682;28;20029;-69
2023/09/08 07:25:14;;;;;;;15.45;9.05;;;18.70;99.90;;;;;;5031853;28;20069;-68
2023/09/08 07:27:40;;;;;;;12.73;8.77;;;18.80;99.90;;;;;;5030208;28;20095;-68
2023/09/08 07:30:06;;;;;;;12.25;8.40;;;18.80;99.90;;;;;;5031924;28;20025;-69
2023/09/08 07:32:31;;;;;;;13.70;9.50;;;19.00;99.90;;;;;;5032079;28;20025;-71
2023/09/08 07:34:57;;;;;;;10.77;8.48;;;19.10;99.90;;;;;;5029819;28;20755;-70
2023/09/08 07:37:23;;;;;;;11.73;8.90;;;19.20;99.90;;;;;;5035256;28;20030;-70
2023/09/08 07:39:50;;;;;;;11.48;8.52;;;19.30;99.90;;;;;;5029651;28;20029;-70
2023/09/08 07:42:15;;;;;;;12.23;8.88;;;19.50;99.90;;;;;;5022878;28;20025;-71
2023/09/08 07:44:41;;;;;;;10.65;8.43;;;19.60;99.90;;;;;;5031376;28;20026;-69
2023/09/08 07:47:06;;;;;;;14.82;9.43;;;19.80;99.90;;;;;;5028235;28;20025;-69
2023/09/08 07:49:35;;;;;;;10.68;8.98;;;19.90;99.90;;;;;;5031105;28;20079;-69
2023/09/08 07:52:01;;;;;;;11.20;7.95;;;19.90;99.90;;;;;;5031272;28;20029;-69
2023/09/08 07:54:27;;;;;;;15.18;9.30;;;20.00;99.90;;;;;;5023727;28;20033;-70
2023/09/08 07:56:52;;;;;;;10.90;8.95;;;20.10;99.90;;;;;;5029909;28;20042;-69
2023/09/08 07:59:18;;;;;;;11.48;7.90;;;20.20;99.90;;;;;;5037182;28;20466;-69
2023/09/08 08:01:44;;;;;;;15.57;8.45;;;20.20;99.90;;;;;;5029421;28;20038;-69
2023/09/08 08:04:09;;;;;;;16.98;9.65;;;20.30;99.90;;;;;;5032119;28;20028;-70
2023/09/08 08:06:35;;;;;;;16.08;9.43;;;20.50;99.90;;;;;;5032138;28;20072;-70
2023/09/08 08:09:01;;;;;;;12.15;9.20;;;20.60;99.90;;;;;;5026430;28;20585;-68
2023/09/08 08:11:27;;;;;;;11.25;8.88;;;20.70;99.90;;;;;;5032586;28;20094;-68
2023/09/08 08:13:53;;;;;;;10.45;8.68;;;20.80;99.90;;;;;;5035294;28;20096;-69
2023/09/08 08:16:20;;;;;;;14.55;9.35;;;20.90;99.90;;;;;;5039238;28;20075;-68
2023/09/08 08:18:45;;;;;;;15.35;8.60;;;21.00;99.90;;;;;;5038967;28;20028;-70
2023/09/08 08:21:11;;;;;;;12.45;8.68;;;21.10;99.90;;;;;;5041398;28;20108;-70
2023/09/08 08:23:38;;;;;;;12.77;9.13;;;21.30;99.90;;;;;;5037243;28;20060;-68
2023/09/08 08:26:04;;;;;;;13.73;8.30;;;21.40;99.90;;;;;;5034779;28;20052;-70
2023/09/08 08:28:29;;;;;;;13.50;8.90;;;21.50;99.90;;;;;;5029090;28;20057;-72
2023/09/08 08:30:55;;;;;;;11.23;7.82;;;21.70;99.90;;;;;;5030635;28;20071;-70
2023/09/08 08:33:22;;;;;;;12.82;9.75;;;21.70;99.90;;;;;;5028015;28;20065;-70
2023/09/08 08:35:52;;;;;;;16.95;9.40;;;21.80;99.90;;;;;;5030926;28;20583;-68
2023/09/08 08:38:18;;;;;;;13.07;8.65;;;22.00;99.90;;;;;;5012520;28;20061;-70
2023/09/08 08:40:44;;;;;;;13.57;9.43;;;22.00;99.90;;;;;;5027229;28;20052;-70
2023/09/08 08:43:10;;;;;;;15.07;8.85;;;22.20;99.90;;;;;;5030732;28;20037;-70
2023/09/08 08:45:38;;;;;;;12.52;8.77;;;22.30;99.90;;;;;;5029909;28;20137;-69
2023/09/08 08:48:05;;;;;;;11.23;7.72;;;22.30;99.90;;;;;;5034049;28;20021;-70
2023/09/08 08:50:32;;;;;;;15.90;9.15;;;22.50;99.90;;;;;;5023220;28;20022;-72
2023/09/08 08:52:58;;;;;;;14.70;9.02;;;22.70;99.90;;;;;;5030995;28;20689;-69
2023/09/08 08:55:25;;;;;;;17.73;9.35;;;22.90;99.90;;;;;;5035082;28;20037;-70
2023/09/08 08:57:52;;;;;;;15.85;9.35;;;23.00;99.90;;;;;;5033291;28;20030;-69
2023/09/08 09:00:21;;;;;;;12.90;8.30;;;23.10;99.90;;;;;;5034354;28;20026;-71
2023/09/08 09:02:49;;;;;;;13.23;7.88;;;23.20;99.90;;;;;;5032670;28;20379;-71
2023/09/08 09:05:14;;;;;;;13.32;7.72;;;23.30;99.90;;;;;;5034527;28;20095;-71
2023/09/08 09:07:42;;;;;;;12.20;7.60;;;23.40;99.90;;;;;;5033199;28;20022;-72
2023/09/08 09:10:08;;;;;;;16.65;8.38;;;23.60;99.90;;;;;;5025020;28;20026;-71
2023/09/08 09:12:37;;;;;;;15.25;8.25;;;23.80;99.90;;;;;;5032585;28;20029;-71
2023/09/08 09:15:04;;;;;;;9.38;7.80;;;23.90;99.90;;;;;;5034273;28;20540;-70
2023/09/08 09:17:32;;;;;;;11.82;7.15;;;24.10;99.90;;;;;;5033411;28;20852;-73
2023/09/08 09:20:19;;;;;;;15.38;8.05;;;24.20;99.90;;;;;;5033740;28;20025;-71
2023/09/08 09:22:46;;;;;;;10.50;6.93;;;24.40;99.90;;;;;;5031990;28;20025;-71
2023/09/08 09:25:26;;;;;;;9.15;7.28;;;24.40;99.90;;;;;;5033396;28;20033;-71
2023/09/08 09:27:56;;;;;;;10.68;6.93;;;24.50;99.90;;;;;;5030632;28;20132;-71
2023/09/08 09:30:23;;;;;;;;;;;24.60;99.90;;;;;;5034622;28;20029;-72
2023/09/08 09:32:58;;;;;;;13.55;7.95;;;24.90;99.90;;;;;;5032493;28;19963;-72
2023/09/08 09:35:46;;;;;;;12.60;8.07;;;25.00;99.90;;;;;;5034173;28;20382;-71
2023/09/08 09:38:12;;;;;;;14.23;7.70;;;25.10;99.90;;;;;;5030548;28;20026;-72
2023/09/08 09:40:39;;;;;;;8.90;6.97;;;25.20;99.90;;;;;;5031570;28;20407;-72
2023/09/08 09:43:05;;;;;;;10.93;7.22;;;25.30;99.90;;;;;;5033216;28;20037;-71
2023/09/08 09:45:33;;;;;;;14.35;7.35;;;25.40;99.90;;;;;;5033016;28;20029;-74
2023/09/08 09:47:58;;;;;;;14.65;6.75;;;25.40;99.90;;;;;;5032952;28;20134;-70
2023/09/08 09:50:32;;;;;;;8.73;6.75;;;25.50;99.90;;;;;;5033669;28;20069;-71
2023/09/08 09:53:00;;;;;;;9.20;6.88;;;25.70;99.90;;;;;;5032789;28;20025;-71
2023/09/08 09:55:26;;;;;;;10.20;6.85;;;25.70;99.90;;;;;;5033044;28;20041;-71
2023/09/08 09:57:58;;;;;;;15.73;7.15;;;25.80;99.90;;;;;;5030775;28;20034;-71
2023/09/08 10:00:28;;;;;;;11.02;6.88;;;25.90;99.90;;;;;;5022738;28;20029;-71
2023/09/08 10:02:55;;;;;;;11.15;6.40;;;25.90;99.90;;;;;;5032313;28;20037;-71
2023/09/08 10:05:21;;;;;;;11.43;7.20;;;26.00;99.90;;;;;;5033194;28;20355;-71
2023/09/08 10:07:50;;;;;;;9.32;7.03;;;26.10;99.90;;;;;;5031938;28;20514;-71
2023/09/08 10:10:17;;;;;;;9.45;6.88;;;26.20;99.90;;;;;;5033133;28;20036;-71
2023/09/08 10:12:45;;;;;;;12.07;6.68;;;26.20;99.90;;;;;;5031690;28;20025;-71
2023/09/08 10:15:12;;;;;;;12.20;7.20;;;26.30;99.90;;;;;;5032960;28;20042;-71
2023/09/08 10:17:40;;;;;;;8.25;6.70;;;26.40;99.90;;;;;;5031777;28;20029;-71
2023/09/08 10:20:11;;;;;;;9.27;6.88;;;26.50;99.90;;;;;;5033453;28;20021;-70
2023/09/08 10:22:41;;;;;;;10.10;6.72;;;26.60;99.90;;;;;;5031472;28;20458;-71
2023/09/08 10:25:08;;;;;;;6.68;5.65;;;26.70;99.90;;;;;;5033127;28;20087;-70
2023/09/08 10:27:35;;;;;;;7.10;5.78;;;26.90;99.90;;;;;;5029203;28;20038;-70
2023/09/08 10:30:06;;;;;;;11.13;6.82;;;27.00;99.90;;;;;;5033315;28;20079;-69
2023/09/08 10:32:35;;;;;;;8.70;6.15;;;27.10;99.90;;;;;;5031437;28;20548;-71
2023/09/08 10:35:02;;;;;;;9.55;6.07;;;27.10;99.90;;;;;;5032479;28;20036;-69
2023/09/08 10:37:29;;;;;;;8.13;6.18;;;27.20;99.90;;;;;;5027280;28;20040;-71
2023/09/08 10:39:55;;;;;;;6.45;5.78;;;27.30;99.90;;;;;;5031923;28;20025;-70
2023/09/08 10:42:27;;;;;;;6.00;5.40;;;27.30;99.90;;;;;;5033077;28;20029;-70
2023/09/08 10:44:57;;;;;;;6.63;5.47;;;27.40;99.50;;;;;;5031197;28;20473;-70
2023/09/08 10:47:41;;;;;;;5.97;5.32;;;27.50;99.30;;;;;;5032639;28;20034;-69
2023/09/08 10:50:15;;;;;;;6.25;5.38;;;27.70;99.50;;;;;;5033378;28;20021;-69
2023/09/08 10:52:41;;;;;;;7.80;5.35;;;27.90;99.50;;;;;;5030845;28;20029;-70
2023/09/08 10:55:07;;;;;;;6.68;5.07;;;28.00;98.30;;;;;;5032295;28;20033;-70
2023/09/08 10:57:33;;;;;;;6.32;5.72;;;28.00;98.40;;;;;;5031403;28;20029;-71
2023/09/08 11:00:14;;;;;;;6.35;5.40;;;28.20;98.40;;;;;;5032465;28;20032;-70
2023/09/08 11:02:41;;;;;;;8.70;5.45;;;28.30;98.10;;;;;;5030903;28;20032;-70
2023/09/08 11:05:10;;;;;;;7.22;5.78;;;28.30;97.80;;;;;;5032174;28;20164;-70
2023/09/08 11:07:37;;;;;;;8.20;5.97;;;28.30;97.70;;;;;;5030704;28;20132;-70
2023/09/08 11:10:04;;;;;;;10.88;5.68;;;28.40;97.70;;;;;;5031035;28;20354;-70
2023/09/08 11:12:31;;;;;;;9.23;5.88;;;28.50;97.50;;;;;;5030933;28;20079;-72
2023/09/08 11:14:57;;;;;;;10.18;5.85;;;28.50;97.30;;;;;;5030822;28;20025;-70
2023/09/08 11:17:26;;;;;;;8.30;6.07;;;28.60;97.20;;;;;;5026155;28;20463;-70
2023/09/08 11:19:52;;;;;;;15.48;6.10;;;28.70;97.20;;;;;;5030376;28;20067;-70
2023/09/08 11:22:18;;;;;;;9.45;5.85;;;28.70;97.40;;;;;;5032188;28;20470;-70
2023/09/08 11:24:44;;;;;;;8.73;6.30;;;28.80;96.90;;;;;;5029674;28;20092;-70
2023/09/08 11:27:11;;;;;;;8.85;5.97;;;29.00;96.60;;;;;;5031813;28;20037;-70
2023/09/08 11:29:40;;;;;;;6.75;5.35;;;29.00;96.60;;;;;;5027131;28;20139;-71
2023/09/08 11:32:09;;;;;;;8.55;5.65;;;29.00;96.50;;;;;;5020904;28;20025;-69
2023/09/08 11:34:35;;;;;;;13.00;6.18;;;29.10;96.70;;;;;;5030661;28;20045;-70
2023/09/08 11:37:07;;;;;;;19.65;7.05;;;29.30;99.50;;;;;;5031392;28;20037;-71
2023/09/08 11:39:39;;;;;;;7.75;6.00;;;29.30;96.30;;;;;;5027088;28;20065;-70
2023/09/08 11:42:06;;;;;;;13.82;6.57;;;29.30;96.00;;;;;;5031464;28;20478;-71
2023/09/08 11:44:33;;;;;;;8.82;5.40;;;29.40;95.60;;;;;;5030408;28;20026;-72
2023/09/08 11:46:59;;;;;;;11.82;6.20;;;29.40;95.80;;;;;;5031740;28;20032;-74
2023/09/08 11:49:25;;;;;;;11.40;6.30;;;29.40;96.10;;;;;;5031041;28;20033;-69
2023/09/08 11:51:50;;;;;;;7.32;6.40;;;29.50;95.40;;;;;;5030535;28;20040;-68
2023/09/08 11:54:17;;;;;;;7.97;6.60;;;29.50;95.50;;;;;;5030600;28;20041;-68
2023/09/08 11:56:43;;;;;;;7.72;6.93;;;29.50;95.20;;;;;;5030612;28;20119;-66
2023/09/08 11:59:09;;;;;;;10.30;6.05;;;29.40;95.20;;;;;;5030168;28;20048;-67
2023/09/08 12:01:35;;;;;;;7.35;6.20;;;29.40;95.50;;;;;;5030564;28;20025;-68
2023/09/08 12:04:01;;;;;;;7.32;6.13;;;29.40;95.40;;;;;;5030781;28;20136;-69
2023/09/08 12:06:27;;;;;;;8.80;6.38;;;29.30;95.30;;;;;;5031245;28;20486;-67
2023/09/08 12:08:55;;;;;;;9.75;6.97;;;29.30;95.50;;;;;;5029786;28;20496;-69
2023/09/08 12:11:20;;;;;;;8.73;5.65;;;29.40;95.10;;;;;;5029910;28;20032;-72
2023/09/08 12:13:46;;;;;;;9.00;6.13;;;29.50;95.10;;;;;;5029299;28;20033;-70
2023/09/08 12:16:24;;;;;;;7.20;6.45;;;29.60;95.20;;;;;;5031106;28;20103;-68
2023/09/08 12:18:50;;;;;;;8.00;6.32;;;29.70;95.00;;;;;;5030030;28;20025;-69
2023/09/08 12:21:16;;;;;;;6.63;5.70;;;29.70;94.60;;;;;;5031326;28;20029;-69
2023/09/08 12:23:49;;;;;;;7.82;6.38;;;29.70;94.60;;;;;;5032645;28;20525;-68
2023/09/08 12:26:16;;;;;;;6.53;5.93;;;29.70;94.40;;;;;;5028589;28;20071;-69
2023/09/08 12:28:42;;;;;;;8.10;6.43;;;29.70;94.40;;;;;;5021680;28;20029;-68
2023/09/08 12:31:12;;;;;;;7.30;6.60;;;29.80;94.70;;;;;;5034574;28;20075;-68
2023/09/08 12:33:38;;;;;;;10.90;6.03;;;29.80;94.40;;;;;;5031028;28;20099;-69
2023/09/08 12:36:14;;;;;;;8.05;6.35;;;29.90;94.30;;;;;;5020490;28;20671;-69
2023/09/08 12:38:40;;;;;;;7.13;6.45;;;29.90;93.70;;;;;;5022267;28;20041;-68
2023/09/08 12:41:06;;;;;;;6.32;5.35;;;29.90;94.00;;;;;;5004376;28;20030;-69
2023/09/08 12:43:31;;;;;;;7.82;6.13;;;30.00;93.50;;;;;;5023983;28;20049;-70
2023/09/08 12:45:57;;;;;;;8.23;6.32;;;30.10;93.10;;;;;;5024902;28;20107;-69
2023/09/08 12:48:22;;;;;;;8.93;6.00;;;30.00;93.40;;;;;;5022094;28;20037;-68
2023/09/08 12:50:49;;;;;;;13.13;6.22;;;30.00;93.00;;;;;;5026122;28;20029;-68
2023/09/08 12:53:15;;;;;;;8.57;5.60;;;30.00;93.30;;;;;;5021625;28;21041;-69
2023/09/08 12:55:41;;;;;;;8.27;5.78;;;30.10;93.40;;;;;;5025120;28;20120;-68
2023/09/08 12:58:06;;;;;;;7.30;6.07;;;30.20;93.00;;;;;;5023768;28;20175;-69
2023/09/08 13:00:32;;;;;;;12.27;5.85;;;30.10;92.60;;;;;;5024727;28;20029;-70
2023/09/08 13:02:57;;;;;;;9.15;5.97;;;30.20;93.10;;;;;;5023533;28;20133;-69
2023/09/08 13:05:23;;;;;;;10.48;6.38;;;30.20;92.50;;;;;;5026175;28;20068;-70
2023/09/08 13:07:48;;;;;;;6.10;5.50;;;30.20;92.40;;;;;;5022332;28;20635;-69